sensor_id;sensor_type;location;lat;lon;timestamp;pressure;altitude;pressure_sealevel;temperature;humidity
26859;BME280;14429;48.346;16.338;2022-08-01T00:01:24;99556.50;;;25.58;46.40
26859;BME280;14429;48.346;16.338;2022-08-01T00:03:50;99560.22;;;25.90;45.80
26859;BME280;14429;48.346;16.338;2022-08-01T00:06:15;99556.97;;;26.14;45.09
26859;BME280;14429;48.346;16.338;2022-08-01T00:08:41;99549.84;;;26.19;44.91
26859;BME280;14429;48.346;16.338;2022-08-01T00:11:08;99542.44;;;25.61;46.46
26859;BME280;14429;48.346;16.338;2022-08-01T00:13:33;99540.81;;;25.72;45.88
26859;BME280;14429;48.346;16.338;2022-08-01T00:15:58;99540.16;;;26.17;45.11
26859;BME280;14429;48.346;16.338;2022-08-01T00:18:24;99542.88;;;26.17;44.94
26859;BME280;14429;48.346;16.338;2022-08-01T00:20:50;99528.41;;;26.35;44.40
26859;BME280;14429;48.346;16.338;2022-08-01T00:23:15;99530.28;;;26.35;44.53
26859;BME280;14429;48.346;16.338;2022-08-01T00:25:41;99534.47;;;25.66;46.56
26859;BME280;14429;48.346;16.338;2022-08-01T00:28:08;99535.69;;;25.23;47.82
26859;BME280;14429;48.346;16.338;2022-08-01T00:30:33;99534.69;;;24.29;50.56
26859;BME280;14429;48.346;16.338;2022-08-01T00:32:58;99534.81;;;25.50;47.06
26859;BME280;14429;48.346;16.338;2022-08-01T00:35:24;99530.81;;;25.98;45.64
26859;BME280;14429;48.346;16.338;2022-08-01T00:37:50;99528.78;;;26.07;45.15
26859;BME280;14429;48.346;16.338;2022-08-01T00:40:15;99531.38;;;26.40;44.46
26859;BME280;14429;48.346;16.338;2022-08-01T00:42:40;99530.97;;;25.84;45.95
26859;BME280;14429;48.346;16.338;2022-08-01T00:45:09;99535.75;;;26.22;45.02
26859;BME280;14429;48.346;16.338;2022-08-01T00:47:34;99531.38;;;26.53;44.22
26859;BME280;14429;48.346;16.338;2022-08-01T00:50:00;99538.13;;;26.57;43.99
26859;BME280;14429;48.346;16.338;2022-08-01T00:52:25;99543.63;;;26.70;43.72
26859;BME280;14429;48.346;16.338;2022-08-01T00:54:51;99537.31;;;26.69;43.84
26859;BME280;14429;48.346;16.338;2022-08-01T00:57:16;99536.66;;;26.74;43.70
26859;BME280;14429;48.346;16.338;2022-08-01T00:59:42;99541.13;;;26.75;43.73
26859;BME280;14429;48.346;16.338;2022-08-01T01:02:09;99536.69;;;26.80;43.57
26859;BME280;14429;48.346;16.338;2022-08-01T01:04:35;99543.19;;;25.15;48.28
26859;BME280;14429;48.346;16.338;2022-08-01T01:07:07;99537.25;;;25.05;48.47
26859;BME280;14429;48.346;16.338;2022-08-01T01:09:41;99544.03;;;25.95;45.72
26859;BME280;14429;48.346;16.338;2022-08-01T01:12:12;99526.81;;;26.01;45.35
26859;BME280;14429;48.346;16.338;2022-08-01T01:14:43;99525.47;;;25.71;46.41
26859;BME280;14429;48.346;16.338;2022-08-01T01:17:11;99532.41;;;25.80;46.26
26859;BME280;14429;48.346;16.338;2022-08-01T01:19:42;99535.53;;;26.24;45.00
26859;BME280;14429;48.346;16.338;2022-08-01T01:22:22;99531.38;;;26.40;44.62
26859;BME280;14429;48.346;16.338;2022-08-01T01:25:03;99535.59;;;26.49;44.39
26859;BME280;14429;48.346;16.338;2022-08-01T01:27:39;99538.97;;;26.64;43.99
26859;BME280;14429;48.346;16.338;2022-08-01T01:30:09;99528.66;;;26.59;44.08
26859;BME280;14429;48.346;16.338;2022-08-01T01:32:36;99525.50;;;26.69;43.87
26859;BME280;14429;48.346;16.338;2022-08-01T01:35:07;99523.41;;;26.71;43.84
26859;BME280;14429;48.346;16.338;2022-08-01T01:37:35;99522.56;;;26.77;43.75
26859;BME280;14429;48.346;16.338;2022-08-01T01:40:05;99524.25;;;26.84;43.68
26859;BME280;14429;48.346;16.338;2022-08-01T01:42:31;99520.03;;;26.88;43.49
26859;BME280;14429;48.346;16.338;2022-08-01T01:44:58;99523.41;;;26.90;43.38
26859;BME280;14429;48.346;16.338;2022-08-01T01:47:27;99508.44;;;26.67;43.76
26859;BME280;14429;48.346;16.338;2022-08-01T01:49:54;99516.66;;;26.80;43.65
26859;BME280;14429;48.346;16.338;2022-08-01T01:52:21;99519.19;;;26.87;43.44
26859;BME280;14429;48.346;16.338;2022-08-01T01:54:49;99518.34;;;26.93;43.34
26859;BME280;14429;48.346;16.338;2022-08-01T01:57:16;99510.97;;;26.87;43.37
26859;BME280;14429;48.346;16.338;2022-08-01T01:59:42;99520.38;;;26.15;45.73
26859;BME280;14429;48.346;16.338;2022-08-01T02:02:10;99509.25;;;25.64;47.28
26859;BME280;14429;48.346;16.338;2022-08-01T02:04:40;99518.00;;;24.86;50.44
26859;BME280;14429;48.346;16.338;2022-08-01T02:07:08;99525.94;;;24.81;50.78
26859;BME280;14429;48.346;16.338;2022-08-01T02:09:35;99525.47;;;25.38;47.45
26859;BME280;14429;48.346;16.338;2022-08-01T02:12:03;99521.69;;;25.39;47.40
26859;BME280;14429;48.346;16.338;2022-08-01T02:14:32;99516.22;;;24.99;49.37
26859;BME280;14429;48.346;16.338;2022-08-01T02:16:59;99521.91;;;24.57;51.26
26859;BME280;14429;48.346;16.338;2022-08-01T02:19:25;99513.94;;;25.09;48.62
26859;BME280;14429;48.346;16.338;2022-08-01T02:21:56;99526.06;;;24.11;53.53
26859;BME280;14429;48.346;16.338;2022-08-01T02:24:30;99517.22;;;24.92;49.00
26859;BME280;14429;48.346;16.338;2022-08-01T02:27:00;99516.50;;;25.44;47.53
26859;BME280;14429;48.346;16.338;2022-08-01T02:29:41;99514.16;;;25.41;47.94
26859;BME280;14429;48.346;16.338;2022-08-01T02:32:10;99516.53;;;24.63;51.34
26859;BME280;14429;48.346;16.338;2022-08-01T02:34:39;99514.81;;;24.14;53.91
26859;BME280;14429;48.346;16.338;2022-08-01T02:37:08;99516.16;;;24.72;49.80
26859;BME280;14429;48.346;16.338;2022-08-01T02:39:36;99506.91;;;25.27;48.17
26859;BME280;14429;48.346;16.338;2022-08-01T02:42:05;99504.97;;;25.48;47.54
26859;BME280;14429;48.346;16.338;2022-08-01T02:44:35;99502.53;;;25.66;47.07
26859;BME280;14429;48.346;16.338;2022-08-01T02:47:03;99501.91;;;25.31;48.88
26859;BME280;14429;48.346;16.338;2022-08-01T02:49:31;99502.53;;;25.72;46.76
26859;BME280;14429;48.346;16.338;2022-08-01T02:51:57;99503.84;;;25.03;50.46
26859;BME280;14429;48.346;16.338;2022-08-01T02:54:26;99505.47;;;25.25;48.38
26859;BME280;14429;48.346;16.338;2022-08-01T02:56:53;99506.31;;;25.71;46.83
26859;BME280;14429;48.346;16.338;2022-08-01T02:59:22;99502.69;;;26.11;45.99
26859;BME280;14429;48.346;16.338;2022-08-01T03:01:49;99502.31;;;26.26;45.45
26859;BME280;14429;48.346;16.338;2022-08-01T03:04:18;99500.19;;;26.28;45.33
26859;BME280;14429;48.346;16.338;2022-08-01T03:06:46;99505.66;;;26.16;45.84
26859;BME280;14429;48.346;16.338;2022-08-01T03:09:12;99500.47;;;24.12;53.77
26859;BME280;14429;48.346;16.338;2022-08-01T03:11:41;99505.09;;;25.74;47.04
26859;BME280;14429;48.346;16.338;2022-08-01T03:14:09;99496.75;;;26.01;45.99
26859;BME280;14429;48.346;16.338;2022-08-01T03:16:36;99500.63;;;26.26;45.46
26859;BME280;14429;48.346;16.338;2022-08-01T03:19:03;99502.72;;;26.24;45.62
26859;BME280;14429;48.346;16.338;2022-08-01T03:21:31;99503.97;;;26.21;45.70
26859;BME280;14429;48.346;16.338;2022-08-01T03:23:58;99511.16;;;26.35;45.37
26859;BME280;14429;48.346;16.338;2022-08-01T03:26:27;99506.09;;;26.38;45.15
26859;BME280;14429;48.346;16.338;2022-08-01T03:28:58;99513.47;;;25.72;48.87
26859;BME280;14429;48.346;16.338;2022-08-01T03:31:25;99507.81;;;25.80;47.44
26859;BME280;14429;48.346;16.338;2022-08-01T03:33:51;99510.59;;;25.93;46.53
26859;BME280;14429;48.346;16.338;2022-08-01T03:36:21;99506.50;;;26.23;45.65
26859;BME280;14429;48.346;16.338;2022-08-01T03:38:49;99512.78;;;25.58;48.61
26859;BME280;14429;48.346;16.338;2022-08-01T03:41:18;99501.88;;;26.23;45.70
26859;BME280;14429;48.346;16.338;2022-08-01T03:43:46;99504.22;;;26.45;45.14
26859;BME280;14429;48.346;16.338;2022-08-01T03:46:18;99503.56;;;26.50;44.80
26859;BME280;14429;48.346;16.338;2022-08-01T03:48:48;99505.28;;;26.57;44.83
26859;BME280;14429;48.346;16.338;2022-08-01T03:51:14;99500.22;;;26.60;44.57
26859;BME280;14429;48.346;16.338;2022-08-01T03:53:41;99493.25;;;26.64;44.62
26859;BME280;14429;48.346;16.338;2022-08-01T03:56:07;99504.84;;;26.60;44.70
26859;BME280;14429;48.346;16.338;2022-08-01T03:58:33;99508.91;;;26.70;44.47
26859;BME280;14429;48.346;16.338;2022-08-01T04:01:00;99509.50;;;26.72;44.48
26859;BME280;14429;48.346;16.338;2022-08-01T04:03:27;99508.03;;;26.70;44.49
26859;BME280;14429;48.346;16.338;2022-08-01T04:05:53;99505.09;;;26.71;44.43
26859;BME280;14429;48.346;16.338;2022-08-01T04:08:18;99501.06;;;26.67;44.65
26859;BME280;14429;48.346;16.338;2022-08-01T04:10:44;99512.41;;;26.26;46.79
26859;BME280;14429;48.346;16.338;2022-08-01T04:13:09;99516.63;;;26.41;45.26
26859;BME280;14429;48.346;16.338;2022-08-01T04:15:35;99505.69;;;26.60;44.77
26859;BME280;14429;48.346;16.338;2022-08-01T04:18:00;99510.97;;;26.68;44.67
26859;BME280;14429;48.346;16.338;2022-08-01T04:20:27;99509.09;;;26.69;44.60
26859;BME280;14429;48.346;16.338;2022-08-01T04:22:53;99509.88;;;26.31;46.83
26859;BME280;14429;48.346;16.338;2022-08-01T04:25:24;99514.97;;;26.40;45.33
26859;BME280;14429;48.346;16.338;2022-08-01T04:27:50;99510.31;;;26.47;45.07
26859;BME280;14429;48.346;16.338;2022-08-01T04:30:20;99515.97;;;25.68;49.45
26859;BME280;14429;48.346;16.338;2022-08-01T04:32:48;99507.09;;;25.53;48.48
26859;BME280;14429;48.346;16.338;2022-08-01T04:35:16;99515.38;;;25.72;48.76
26859;BME280;14429;48.346;16.338;2022-08-01T04:37:46;99517.22;;;24.92;52.14
26859;BME280;14429;48.346;16.338;2022-08-01T04:40:13;99518.13;;;25.05;50.67
26859;BME280;14429;48.346;16.338;2022-08-01T04:42:39;99511.47;;;24.60;53.33
26859;BME280;14429;48.346;16.338;2022-08-01T04:45:06;99524.69;;;24.36;54.31
26859;BME280;14429;48.346;16.338;2022-08-01T04:47:32;99524.91;;;25.16;49.25
26859;BME280;14429;48.346;16.338;2022-08-01T04:49:59;99520.00;;;24.30;54.62
26859;BME280;14429;48.346;16.338;2022-08-01T04:52:33;99528.38;;;25.30;49.25
26859;BME280;14429;48.346;16.338;2022-08-01T04:54:59;99516.66;;;25.36;48.76
26859;BME280;14429;48.346;16.338;2022-08-01T04:57:25;99514.22;;;25.54;48.18
26859;BME280;14429;48.346;16.338;2022-08-01T04:59:50;99512.63;;;24.24;56.66
26859;BME280;14429;48.346;16.338;2022-08-01T05:02:17;99511.28;;;25.16;49.16
26859;BME280;14429;48.346;16.338;2022-08-01T05:04:44;99509.25;;;25.64;47.86
26859;BME280;14429;48.346;16.338;2022-08-01T05:07:11;99502.41;;;25.47;51.17
26859;BME280;14429;48.346;16.338;2022-08-01T05:09:37;99515.44;;;25.91;47.17
26859;BME280;14429;48.346;16.338;2022-08-01T05:12:05;99509.34;;;26.02;46.73
26859;BME280;14429;48.346;16.338;2022-08-01T05:14:32;99514.88;;;26.08;46.33
26859;BME280;14429;48.346;16.338;2022-08-01T05:16:58;99504.75;;;25.96;48.93
26859;BME280;14429;48.346;16.338;2022-08-01T05:19:23;99510.81;;;25.98;46.99
26859;BME280;14429;48.346;16.338;2022-08-01T05:21:49;99506.91;;;26.20;46.44
26859;BME280;14429;48.346;16.338;2022-08-01T05:24:14;99512.38;;;26.32;45.95
26859;BME280;14429;48.346;16.338;2022-08-01T05:26:40;99519.84;;;25.86;50.96
26859;BME280;14429;48.346;16.338;2022-08-01T05:29:07;99529.88;;;25.06;55.24
26859;BME280;14429;48.346;16.338;2022-08-01T05:31:33;99530.22;;;24.69;56.39
26859;BME280;14429;48.346;16.338;2022-08-01T05:33:58;99534.75;;;24.35;57.36
26859;BME280;14429;48.346;16.338;2022-08-01T05:36:24;99534.53;;;24.16;58.38
26859;BME280;14429;48.346;16.338;2022-08-01T05:38:49;99535.56;;;25.04;50.14
26859;BME280;14429;48.346;16.338;2022-08-01T05:41:15;99523.47;;;25.53;48.46
26859;BME280;14429;48.346;16.338;2022-08-01T05:43:40;99520.47;;;25.81;47.68
26859;BME280;14429;48.346;16.338;2022-08-01T05:46:07;99516.44;;;25.77;49.33
26859;BME280;14429;48.346;16.338;2022-08-01T05:48:32;99518.22;;;26.04;46.98
26859;BME280;14429;48.346;16.338;2022-08-01T05:50:58;99532.09;;;25.23;55.54
26859;BME280;14429;48.346;16.338;2022-08-01T05:53:23;99532.72;;;25.52;49.90
26859;BME280;14429;48.346;16.338;2022-08-01T05:55:49;99527.72;;;25.62;49.77
26859;BME280;14429;48.346;16.338;2022-08-01T05:58:14;99535.75;;;25.70;51.36
26859;BME280;14429;48.346;16.338;2022-08-01T06:00:40;99536.56;;;25.30;51.93
26859;BME280;14429;48.346;16.338;2022-08-01T06:03:07;99529.28;;;25.77;48.98
26859;BME280;14429;48.346;16.338;2022-08-01T06:05:32;99535.34;;;25.06;56.12
26859;BME280;14429;48.346;16.338;2022-08-01T06:07:58;99534.72;;;25.37;52.20
26859;BME280;14429;48.346;16.338;2022-08-01T06:10:23;99542.69;;;25.39;49.94
26859;BME280;14429;48.346;16.338;2022-08-01T06:12:49;99534.00;;;25.56;49.16
26859;BME280;14429;48.346;16.338;2022-08-01T06:15:14;99539.69;;;25.61;52.40
26859;BME280;14429;48.346;16.338;2022-08-01T06:17:39;99535.34;;;25.72;49.56
26859;BME280;14429;48.346;16.338;2022-08-01T06:20:08;99536.22;;;25.79;51.63
26859;BME280;14429;48.346;16.338;2022-08-01T06:22:34;99541.25;;;25.36;55.67
26859;BME280;14429;48.346;16.338;2022-08-01T06:24:59;99537.88;;;25.80;49.09
26859;BME280;14429;48.346;16.338;2022-08-01T06:27:25;99549.94;;;25.98;48.26
26859;BME280;14429;48.346;16.338;2022-08-01T06:29:50;99542.28;;;26.27;47.15
26859;BME280;14429;48.346;16.338;2022-08-01T06:32:16;99546.28;;;26.31;47.11
26859;BME280;14429;48.346;16.338;2022-08-01T06:34:41;99551.16;;;26.42;46.83
26859;BME280;14429;48.346;16.338;2022-08-01T06:37:08;99546.50;;;26.43;46.79
26859;BME280;14429;48.346;16.338;2022-08-01T06:39:34;99551.16;;;26.55;46.48
26859;BME280;14429;48.346;16.338;2022-08-01T06:41:59;99549.25;;;26.62;46.33
26859;BME280;14429;48.346;16.338;2022-08-01T06:44:25;99546.13;;;26.65;46.26
26859;BME280;14429;48.346;16.338;2022-08-01T06:46:50;99556.22;;;26.58;46.71
26859;BME280;14429;48.346;16.338;2022-08-01T06:49:16;99553.06;;;26.61;46.46
26859;BME280;14429;48.346;16.338;2022-08-01T06:51:41;99549.91;;;26.64;46.24
26859;BME280;14429;48.346;16.338;2022-08-01T06:54:08;99551.59;;;26.65;46.26
26859;BME280;14429;48.346;16.338;2022-08-01T06:56:33;99545.66;;;26.42;49.99
26859;BME280;14429;48.346;16.338;2022-08-01T06:58:59;99547.78;;;26.66;46.45
26859;BME280;14429;48.346;16.338;2022-08-01T07:01:24;99546.53;;;26.62;48.03
26859;BME280;14429;48.346;16.338;2022-08-01T07:03:50;99548.66;;;26.66;46.61
26859;BME280;14429;48.346;16.338;2022-08-01T07:06:15;99551.16;;;26.61;48.67
26859;BME280;14429;48.346;16.338;2022-08-01T07:08:41;99548.22;;;26.50;48.22
26859;BME280;14429;48.346;16.338;2022-08-01T07:11:07;99553.72;;;26.63;46.78
26859;BME280;14429;48.346;16.338;2022-08-01T07:13:33;99555.16;;;26.46;47.84
26859;BME280;14429;48.346;16.338;2022-08-01T07:15:58;99550.34;;;26.74;46.48
26859;BME280;14429;48.346;16.338;2022-08-01T07:18:24;99551.66;;;26.78;48.17
26859;BME280;14429;48.346;16.338;2022-08-01T07:20:50;99547.84;;;26.85;46.12
26859;BME280;14429;48.346;16.338;2022-08-01T07:23:16;99549.53;;;26.86;46.06
26859;BME280;14429;48.346;16.338;2022-08-01T07:25:42;99557.09;;;26.90;46.21
26859;BME280;14429;48.346;16.338;2022-08-01T07:28:08;99555.84;;;26.99;48.09
26859;BME280;14429;48.346;16.338;2022-08-01T07:30:34;99552.88;;;26.88;46.10
26859;BME280;14429;48.346;16.338;2022-08-01T07:33:00;99556.00;;;26.66;47.80
26859;BME280;14429;48.346;16.338;2022-08-01T07:35:26;99552.69;;;26.70;46.71
26859;BME280;14429;48.346;16.338;2022-08-01T07:37:51;99556.84;;;26.41;49.62
26859;BME280;14429;48.346;16.338;2022-08-01T07:40:17;99559.19;;;26.69;46.46
26859;BME280;14429;48.346;16.338;2022-08-01T07:42:43;99555.00;;;26.80;46.16
26859;BME280;14429;48.346;16.338;2022-08-01T07:45:10;99557.75;;;26.80;46.40
26859;BME280;14429;48.346;16.338;2022-08-01T07:47:36;99558.81;;;26.79;46.38
26859;BME280;14429;48.346;16.338;2022-08-01T07:50:03;99562.81;;;26.82;46.20
26859;BME280;14429;48.346;16.338;2022-08-01T07:52:29;99564.91;;;26.80;46.27
26859;BME280;14429;48.346;16.338;2022-08-01T07:54:55;99562.16;;;26.80;46.15
26859;BME280;14429;48.346;16.338;2022-08-01T07:57:20;99563.84;;;26.69;46.33
26859;BME280;14429;48.346;16.338;2022-08-01T07:59:46;99568.66;;;26.67;47.17
26859;BME280;14429;48.346;16.338;2022-08-01T08:02:13;99564.03;;;26.74;46.16
26859;BME280;14429;48.346;16.338;2022-08-01T08:04:38;99573.13;;;26.74;46.38
26859;BME280;14429;48.346;16.338;2022-08-01T08:07:04;99568.00;;;26.58;48.80
26859;BME280;14429;48.346;16.338;2022-08-01T08:09:30;99569.75;;;26.72;46.29
26859;BME280;14429;48.346;16.338;2022-08-01T08:11:55;99570.81;;;26.71;46.35
26859;BME280;14429;48.346;16.338;2022-08-01T08:14:21;99576.88;;;26.73;46.12
26859;BME280;14429;48.346;16.338;2022-08-01T08:16:46;99565.50;;;26.70;47.02
26859;BME280;14429;48.346;16.338;2022-08-01T08:19:13;99559.63;;;26.73;46.15
26859;BME280;14429;48.346;16.338;2022-08-01T08:21:39;99570.16;;;26.76;46.10
26859;BME280;14429;48.346;16.338;2022-08-01T08:24:06;99563.00;;;26.75;46.25
26859;BME280;14429;48.346;16.338;2022-08-01T08:26:31;99568.84;;;26.46;50.37
26859;BME280;14429;48.346;16.338;2022-08-01T08:28:57;99563.44;;;26.72;46.36
26859;BME280;14429;48.346;16.338;2022-08-01T08:31:22;99562.59;;;26.78;46.12
26859;BME280;14429;48.346;16.338;2022-08-01T08:33:48;99564.28;;;26.79;46.50
26859;BME280;14429;48.346;16.338;2022-08-01T08:36:15;99566.38;;;26.70;48.92
26859;BME280;14429;48.346;16.338;2022-08-01T08:38:40;99570.56;;;26.73;46.58
26859;BME280;14429;48.346;16.338;2022-08-01T08:41:06;99571.44;;;26.80;50.64
26859;BME280;14429;48.346;16.338;2022-08-01T08:43:32;99572.91;;;26.82;46.53
26859;BME280;14429;48.346;16.338;2022-08-01T08:45:57;99576.28;;;26.90;46.72
26859;BME280;14429;48.346;16.338;2022-08-01T08:48:24;99572.06;;;26.81;50.17
26859;BME280;14429;48.346;16.338;2022-08-01T08:50:50;99588.50;;;26.94;48.45
26859;BME280;14429;48.346;16.338;2022-08-01T08:53:18;99577.34;;;26.89;46.04
26859;BME280;14429;48.346;16.338;2022-08-01T08:55:44;99584.09;;;26.93;46.54
26859;BME280;14429;48.346;16.338;2022-08-01T08:58:12;99586.16;;;26.91;46.50
26859;BME280;14429;48.346;16.338;2022-08-01T09:00:38;99583.22;;;26.99;45.98
26859;BME280;14429;48.346;16.338;2022-08-01T09:03:04;99584.91;;;26.87;46.08
26859;BME280;14429;48.346;16.338;2022-08-01T09:05:29;99577.75;;;27.12;48.64
26859;BME280;14429;48.346;16.338;2022-08-01T09:07:55;99585.53;;;27.28;47.14
26859;BME280;14429;48.346;16.338;2022-08-01T09:10:22;99576.03;;;27.11;45.68
26859;BME280;14429;48.346;16.338;2022-08-01T09:13:05;99575.84;;;27.32;46.22
26859;BME280;14429;48.346;16.338;2022-08-01T09:15:42;99584.03;;;27.25;45.25
26859;BME280;14429;48.346;16.338;2022-08-01T09:18:08;99585.34;;;27.42;45.48
26859;BME280;14429;48.346;16.338;2022-08-01T09:20:33;99589.97;;;27.09;45.55
26859;BME280;14429;48.346;16.338;2022-08-01T09:22:59;99591.22;;;26.94;45.85
26859;BME280;14429;48.346;16.338;2022-08-01T09:25:26;99589.53;;;27.06;45.58
26859;BME280;14429;48.346;16.338;2022-08-01T09:28:02;99592.47;;;27.11;46.15
26859;BME280;14429;48.346;16.338;2022-08-01T09:30:28;99601.53;;;27.18;45.45
26859;BME280;14429;48.346;16.338;2022-08-01T09:32:54;99601.16;;;27.08;45.59
26859;BME280;14429;48.346;16.338;2022-08-01T09:35:25;99598.84;;;27.11;45.63
26859;BME280;14429;48.346;16.338;2022-08-01T09:37:51;99593.34;;;26.99;45.72
26859;BME280;14429;48.346;16.338;2022-08-01T09:40:16;99599.66;;;26.99;46.04
26859;BME280;14429;48.346;16.338;2022-08-01T09:42:43;99592.69;;;27.03;45.65
26859;BME280;14429;48.346;16.338;2022-08-01T09:45:09;99592.28;;;27.06;45.63
26859;BME280;14429;48.346;16.338;2022-08-01T09:47:39;99593.31;;;26.92;45.98
26859;BME280;14429;48.346;16.338;2022-08-01T09:50:05;99592.72;;;27.09;45.80
26859;BME280;14429;48.346;16.338;2022-08-01T09:52:31;99588.94;;;27.04;45.75
26859;BME280;14429;48.346;16.338;2022-08-01T09:54:58;99598.59;;;27.13;45.86
26859;BME280;14429;48.346;16.338;2022-08-01T09:57:25;99592.94;;;27.08;45.70
26859;BME280;14429;48.346;16.338;2022-08-01T09:59:54;99603.88;;;27.08;45.68
26859;BME280;14429;48.346;16.338;2022-08-01T10:02:28;99608.31;;;27.09;45.68
26859;BME280;14429;48.346;16.338;2022-08-01T10:04:54;99596.06;;;27.18;47.43
26859;BME280;14429;48.346;16.338;2022-08-01T10:07:19;99602.59;;;27.17;47.26
26859;BME280;14429;48.346;16.338;2022-08-01T10:09:46;99593.97;;;27.13;45.74
26859;BME280;14429;48.346;16.338;2022-08-01T10:12:13;99590.34;;;27.26;47.62
26859;BME280;14429;48.346;16.338;2022-08-01T10:14:40;99595.88;;;27.19;45.38
26859;BME280;14429;48.346;16.338;2022-08-01T10:17:10;99587.84;;;27.24;46.99
26859;BME280;14429;48.346;16.338;2022-08-01T10:19:40;99588.25;;;27.53;46.59
26859;BME280;14429;48.346;16.338;2022-08-01T10:22:08;99584.50;;;27.29;45.42
26859;BME280;14429;48.346;16.338;2022-08-01T10:24:37;99584.88;;;27.51;46.08
26859;BME280;14429;48.346;16.338;2022-08-01T10:27:06;99584.03;;;27.44;45.00
26859;BME280;14429;48.346;16.338;2022-08-01T10:29:36;99579.00;;;27.29;45.49
26859;BME280;14429;48.346;16.338;2022-08-01T10:32:02;99571.19;;;27.26;45.52
26859;BME280;14429;48.346;16.338;2022-08-01T10:34:31;99568.44;;;27.26;45.58
26859;BME280;14429;48.346;16.338;2022-08-01T10:36:58;99576.50;;;27.34;45.46
26859;BME280;14429;48.346;16.338;2022-08-01T10:39:24;99567.00;;;27.23;45.43
26859;BME280;14429;48.346;16.338;2022-08-01T10:41:49;99572.69;;;27.28;45.35
26859;BME280;14429;48.346;16.338;2022-08-01T10:44:16;99570.97;;;27.21;45.79
26859;BME280;14429;48.346;16.338;2022-08-01T10:46:45;99571.03;;;27.34;45.18
26859;BME280;14429;48.346;16.338;2022-08-01T10:49:14;99560.72;;;27.85;43.13
26859;BME280;14429;48.346;16.338;2022-08-01T10:51:42;99558.09;;;27.47;44.88
26859;BME280;14429;48.346;16.338;2022-08-01T10:54:10;99552.63;;;27.47;42.89
26859;BME280;14429;48.346;16.338;2022-08-01T10:56:43;99550.56;;;28.05;40.26
26859;BME280;14429;48.346;16.338;2022-08-01T10:59:09;99555.47;;;27.90;42.40
26859;BME280;14429;48.346;16.338;2022-08-01T11:01:34;99554.94;;;27.56;44.70
26859;BME280;14429;48.346;16.338;2022-08-01T11:04:06;99542.16;;;27.81;41.21
26859;BME280;14429;48.346;16.338;2022-08-01T11:06:54;99546.41;;;27.77;43.91
26859;BME280;14429;48.346;16.338;2022-08-01T11:09:38;99535.69;;;27.62;44.33
26859;BME280;14429;48.346;16.338;2022-08-01T11:12:06;99543.50;;;27.72;42.52
26859;BME280;14429;48.346;16.338;2022-08-01T11:14:33;99547.31;;;27.58;44.62
26859;BME280;14429;48.346;16.338;2022-08-01T11:17:30;99534.84;;;27.68;44.34
26859;BME280;14429;48.346;16.338;2022-08-01T11:20:10;99552.97;;;27.69;44.22
26859;BME280;14429;48.346;16.338;2022-08-01T11:28:44;99529.91;;;27.96;41.40
26859;BME280;14429;48.346;16.338;2022-08-01T11:31:27;99526.44;;;28.13;40.49
26859;BME280;14429;48.346;16.338;2022-08-01T11:33:54;99526.50;;;28.00;39.69
26859;BME280;14429;48.346;16.338;2022-08-01T11:36:20;99524.38;;;28.02;42.14
26859;BME280;14429;48.346;16.338;2022-08-01T11:38:48;99524.00;;;27.92;41.81
26859;BME280;14429;48.346;16.338;2022-08-01T11:41:16;99520.31;;;27.68;43.95
26859;BME280;14429;48.346;16.338;2022-08-01T11:43:56;99514.00;;;27.61;44.25
26859;BME280;14429;48.346;16.338;2022-08-01T11:46:49;99503.59;;;27.76;42.92
26859;BME280;14429;48.346;16.338;2022-08-01T11:52:05;99519.47;;;27.61;44.01
26859;BME280;14429;48.346;16.338;2022-08-01T11:54:33;99532.41;;;27.41;44.83
26859;BME280;14429;48.346;16.338;2022-08-01T11:57:01;99539.38;;;27.37;44.90
26859;BME280;14429;48.346;16.338;2022-08-01T11:59:28;99542.75;;;27.33;44.96
26859;BME280;14429;48.346;16.338;2022-08-01T12:01:53;99543.50;;;27.59;43.47
26859;BME280;14429;48.346;16.338;2022-08-01T12:04:19;99541.84;;;27.58;43.75
26859;BME280;14429;48.346;16.338;2022-08-01T12:06:45;99534.50;;;27.52;44.31
26859;BME280;14429;48.346;16.338;2022-08-01T12:09:18;99529.69;;;27.41;44.95
26859;BME280;14429;48.346;16.338;2022-08-01T12:11:44;99532.19;;;27.36;44.81
26859;BME280;14429;48.346;16.338;2022-08-01T12:14:10;99539.34;;;27.50;44.65
26859;BME280;14429;48.346;16.338;2022-08-01T12:16:48;99554.09;;;27.49;44.80
26859;BME280;14429;48.346;16.338;2022-08-01T12:19:18;99556.84;;;27.43;44.94
26859;BME280;14429;48.346;16.338;2022-08-01T12:21:44;99561.31;;;27.37;45.02
26859;BME280;14429;48.346;16.338;2022-08-01T12:24:09;99562.56;;;27.29;45.51
26859;BME280;14429;48.346;16.338;2022-08-01T12:26:40;99564.91;;;27.19;45.62
26859;BME280;14429;48.346;16.338;2022-08-01T12:29:06;99546.13;;;27.03;46.18
26859;BME280;14429;48.346;16.338;2022-08-01T12:31:33;99556.28;;;26.96;52.23
26859;BME280;14429;48.346;16.338;2022-08-01T12:37:01;99541.72;;;26.96;47.02
26859;BME280;14429;48.346;16.338;2022-08-01T12:39:32;99551.19;;;27.00;46.49
26859;BME280;14429;48.346;16.338;2022-08-01T12:41:58;99558.59;;;26.93;46.80
26859;BME280;14429;48.346;16.338;2022-08-01T12:44:24;99548.91;;;26.90;46.83
26859;BME280;14429;48.346;16.338;2022-08-01T12:46:49;99549.50;;;26.92;46.82
26859;BME280;14429;48.346;16.338;2022-08-01T12:49:15;99542.16;;;26.86;47.48
26859;BME280;14429;48.346;16.338;2022-08-01T12:51:41;99542.16;;;26.93;47.07
26859;BME280;14429;48.346;16.338;2022-08-01T12:54:08;99539.84;;;26.96;46.83
26859;BME280;14429;48.346;16.338;2022-08-01T12:56:33;99550.34;;;26.99;46.92
26859;BME280;14429;48.346;16.338;2022-08-01T12:58:59;99526.75;;;26.98;47.27
26859;BME280;14429;48.346;16.338;2022-08-01T13:01:26;99514.31;;;26.96;50.14
26859;BME280;14429;48.346;16.338;2022-08-01T13:03:59;99502.53;;;27.02;47.05